createdAt,value
2023-01-10T00:00:35.355Z,99571.56
2023-01-10T00:03:03.020Z,99570.34
2023-01-10T00:05:30.709Z,99567.19
2023-01-10T00:07:59.013Z,99581.19
2023-01-10T00:10:27.686Z,99587.16
2023-01-10T00:13:12.724Z,99587.59
2023-01-10T00:15:40.140Z,99597.66
2023-01-10T00:18:07.707Z,99598.28
2023-01-10T00:20:35.215Z,99594.31
2023-01-10T00:23:03.574Z,99612.06
2023-01-10T00:25:34.196Z,99609.78
2023-01-10T00:28:05.468Z,99620.53
2023-01-10T00:30:35.149Z,99618.41
2023-01-10T00:33:05.705Z,99619.47
2023-01-10T00:35:33.179Z,99613.22
2023-01-10T00:38:05.618Z,99622.31
2023-01-10T00:40:34.754Z,99620.16
2023-01-10T00:43:19.979Z,99630.97
2023-01-10T00:45:47.811Z,99628.25
2023-01-10T00:48:15.605Z,99632.81
2023-01-10T00:50:43.160Z,99649.75
2023-01-10T00:53:10.634Z,99655.53
2023-01-10T00:55:40.549Z,99667.72
2023-01-10T00:58:11.462Z,99675.50
2023-01-10T01:00:39.163Z,99675.03
2023-01-10T01:03:07.919Z,99679.69
2023-01-10T01:05:41.835Z,99680.44
2023-01-10T01:08:09.568Z,99681.25
2023-01-10T01:10:36.924Z,99687.53
2023-01-10T01:13:09.704Z,99696.88
2023-01-10T01:15:37.579Z,99703.75
2023-01-10T01:18:06.001Z,99709.25
2023-01-10T01:20:34.303Z,99712.50
2023-01-10T01:23:01.725Z,99717.44
2023-01-10T01:25:29.126Z,99725.72
2023-01-10T01:27:56.520Z,99725.44
2023-01-10T01:30:25.498Z,99720.53
2023-01-10T01:32:52.871Z,99735.16
2023-01-10T01:35:20.331Z,99735.97
2023-01-10T01:37:47.707Z,99741.47
2023-01-10T01:40:16.689Z,99737.59
2023-01-10T01:42:44.843Z,99736.66
2023-01-10T01:45:36.590Z,99733.84
2023-01-10T01:48:16.206Z,99739.94
2023-01-10T01:50:47.756Z,99736.69
2023-01-10T01:53:21.076Z,99747.25
2023-01-10T01:55:49.060Z,99744.97
2023-01-10T01:58:18.945Z,99750.78
2023-01-10T02:00:47.649Z,99760.03
2023-01-10T02:03:16.061Z,99751.44
2023-01-10T02:05:45.412Z,99747.72
2023-01-10T02:08:14.387Z,99750.78
2023-01-10T02:10:48.875Z,99759.38
2023-01-10T02:13:20.334Z,99763.00
2023-01-10T02:15:49.042Z,99769.06
2023-01-10T02:18:16.566Z,99771.34
2023-01-10T02:20:59.280Z,99764.53
2023-01-10T02:23:52.476Z,99764.13
2023-01-10T02:26:50.476Z,99774.22
2023-01-10T02:29:36.409Z,99788.53
2023-01-10T02:32:17.113Z,99789.66
2023-01-10T02:35:01.232Z,99792.91
2023-01-10T02:37:41.671Z,99786.41
2023-01-10T02:40:20.292Z,99793.41
2023-01-10T02:42:53.801Z,99798.25
2023-01-10T02:45:30.437Z,99800.97
2023-01-10T02:47:59.321Z,99799.09
2023-01-10T02:50:31.578Z,99799.88
2023-01-10T02:53:02.939Z,99803.41
2023-01-10T02:55:41.366Z,99816.22
2023-01-10T02:58:20.898Z,99820.72
2023-01-10T03:00:58.575Z,99819.00
2023-01-10T03:03:36.861Z,99831.06
2023-01-10T03:06:16.382Z,99836.50
2023-01-10T03:08:51.772Z,99844.59
2023-01-10T03:11:39.851Z,99848.50
2023-01-10T03:14:12.679Z,99844.88
2023-01-10T03:16:43.990Z,99859.53
2023-01-10T03:19:16.373Z,99860.31
2023-01-10T03:21:45.121Z,99857.84
2023-01-10T03:24:21.802Z,99866.41
2023-01-10T03:26:54.818Z,99872.66
2023-01-10T03:29:29.752Z,99869.06
2023-01-10T03:32:01.296Z,99875.09
2023-01-10T03:34:30.081Z,99886.75
2023-01-10T03:37:05.642Z,99892.38
2023-01-10T03:39:40.815Z,99895.63
2023-01-10T03:42:12.418Z,99904.66
2023-01-10T03:44:44.685Z,99908.19
2023-01-10T03:47:18.363Z,99923.69
2023-01-10T03:49:50.943Z,99911.63
2023-01-10T03:52:20.478Z,99935.19
2023-01-10T03:54:48.993Z,99927.78
2023-01-10T03:57:18.606Z,99937.41
2023-01-10T03:59:47.111Z,99935.50
2023-01-10T04:02:14.507Z,99932.00
2023-01-10T04:04:41.873Z,99940.06
2023-01-10T04:07:10.810Z,99940.34
2023-01-10T04:09:38.219Z,99938.56
2023-01-10T04:12:05.909Z,99944.09
2023-01-10T04:14:33.905Z,99948.28
2023-01-10T04:17:01.284Z,99951.91
2023-01-10T04:19:28.745Z,99962.53
2023-01-10T04:21:56.225Z,99959.34
2023-01-10T04:24:24.976Z,99969.38
2023-01-10T04:26:52.387Z,99979.50
2023-01-10T04:29:19.750Z,99987.69
2023-01-10T04:31:47.180Z,99991.06
2023-01-10T04:34:14.963Z,99999.47
2023-01-10T04:36:42.425Z,99998.84
2023-01-10T04:39:09.935Z,100002.91
2023-01-10T04:41:38.661Z,100010.06
2023-01-10T04:44:06.962Z,100018.47
2023-01-10T04:46:34.420Z,100028.63
2023-01-10T04:49:01.895Z,100033.34
2023-01-10T04:51:29.944Z,100025.28
2023-01-10T04:53:57.212Z,100034.41
2023-01-10T04:56:25.109Z,100045.69
2023-01-10T04:58:54.328Z,100042.47
2023-01-10T05:01:23.693Z,100047.81
2023-01-10T05:03:52.258Z,100049.69
2023-01-10T05:06:20.300Z,100057.50
2023-01-10T05:08:47.900Z,100059.22
2023-01-10T05:11:15.300Z,100064.47
2023-01-10T05:13:43.016Z,100064.69
2023-01-10T05:16:11.717Z,100082.97
2023-01-10T05:18:39.155Z,100079.53
2023-01-10T05:21:08.834Z,100079.44
2023-01-10T05:23:37.154Z,100089.75
2023-01-10T05:26:07.808Z,100089.03
2023-01-10T05:28:35.216Z,100098.19
2023-01-10T05:31:02.734Z,100101.72
2023-01-10T05:33:31.413Z,100102.31
2023-01-10T05:35:58.825Z,100116.84
2023-01-10T05:38:26.197Z,100114.72
2023-01-10T05:40:58.334Z,100127.34
2023-01-10T05:43:27.119Z,100122.09
2023-01-10T05:45:54.605Z,100132.75
2023-01-10T05:48:21.984Z,100133.97
2023-01-10T05:50:52.269Z,100138.19
2023-01-10T05:53:20.406Z,100139.63
2023-01-10T05:55:55.249Z,100146.06
2023-01-10T05:58:23.195Z,100151.00
2023-01-10T06:00:50.782Z,100151.59
2023-01-10T06:03:18.595Z,100153.66
2023-01-10T06:05:48.452Z,100161.81
2023-01-10T06:08:17.916Z,100171.28
2023-01-10T06:10:45.644Z,100171.03
2023-01-10T06:13:13.199Z,100173.38
2023-01-10T06:15:40.674Z,100178.19
2023-01-10T06:18:11.845Z,100185.41
2023-01-10T06:20:39.625Z,100193.56
2023-01-10T06:23:07.372Z,100193.28
2023-01-10T06:25:40.390Z,100198.28
2023-01-10T06:28:08.177Z,100199.06
2023-01-10T06:30:35.998Z,100206.09
2023-01-10T06:33:03.754Z,100220.66
2023-01-10T06:35:31.724Z,100221.94
2023-01-10T06:37:59.124Z,100227.63
2023-01-10T06:40:27.510Z,100233.19
2023-01-10T06:42:56.289Z,100242.31
2023-01-10T06:45:23.646Z,100247.13
2023-01-10T06:47:51.028Z,100244.22
2023-01-10T06:50:19.313Z,100255.13
2023-01-10T06:52:46.720Z,100269.81
2023-01-10T06:55:14.200Z,100273.00
2023-01-10T06:57:41.566Z,100284.38
2023-01-10T07:00:11.791Z,100279.50
2023-01-10T07:02:39.129Z,100292.91
2023-01-10T07:05:08.468Z,100299.28
2023-01-10T07:07:37.258Z,100299.59
2023-01-10T07:10:05.290Z,100291.59
2023-01-10T07:12:32.564Z,100299.06
2023-01-10T07:14:59.922Z,100306.28
2023-01-10T07:17:28.642Z,100313.09
2023-01-10T07:19:55.990Z,100324.63
2023-01-10T07:22:23.749Z,100330.69
2023-01-10T07:24:51.309Z,100332.81
2023-01-10T07:27:18.723Z,100332.03
2023-01-10T07:29:46.117Z,100337.53
2023-01-10T07:32:13.469Z,100337.28
2023-01-10T07:34:42.130Z,100345.88
2023-01-10T07:37:09.514Z,100349.31
2023-01-10T07:39:36.878Z,100350.84
2023-01-10T07:42:04.488Z,100354.22
2023-01-10T07:44:32.314Z,100368.88
2023-01-10T07:46:59.673Z,100368.72
2023-01-10T07:49:27.064Z,100373.22
2023-01-10T07:51:55.761Z,100385.84
2023-01-10T07:54:23.144Z,100376.59
2023-01-10T07:56:50.522Z,100380.22
2023-01-10T07:59:18.080Z,100393.88
2023-01-10T08:01:45.446Z,100390.41
2023-01-10T08:04:12.854Z,100401.56
2023-01-10T08:06:40.212Z,100394.72
2023-01-10T08:09:08.924Z,100408.03
2023-01-10T08:11:36.299Z,100409.84
2023-01-10T08:14:04.007Z,100400.09
2023-01-10T08:16:31.466Z,100412.28
2023-01-10T08:18:59.040Z,100421.13
2023-01-10T08:21:26.410Z,100422.22
2023-01-10T08:23:55.335Z,100426.69
2023-01-10T08:26:24.065Z,100434.94
2023-01-10T08:28:51.540Z,100443.84
2023-01-10T08:31:18.951Z,100440.88
2023-01-10T08:33:46.383Z,100441.44
2023-01-10T08:36:17.737Z,100449.38
2023-01-10T08:38:45.712Z,100450.94
2023-01-10T08:41:13.576Z,100452.56
2023-01-10T08:43:42.307Z,100448.56
2023-01-10T08:46:10.958Z,100450.75
2023-01-10T08:48:38.439Z,100451.63
2023-01-10T08:51:07.549Z,100465.00
2023-01-10T08:53:35.095Z,100463.66
2023-01-10T08:56:04.255Z,100473.31
2023-01-10T08:58:32.894Z,100473.91
2023-01-10T09:01:05.123Z,100475.75
2023-01-10T09:03:32.683Z,100482.47
2023-01-10T09:06:00.524Z,100482.59
2023-01-10T09:08:28.628Z,100496.47
2023-01-10T09:10:55.893Z,100498.66
2023-01-10T09:13:23.252Z,100499.81
2023-01-10T09:15:53.008Z,100500.00
2023-01-10T09:18:21.835Z,100497.31
2023-01-10T09:20:50.970Z,100517.78
2023-01-10T09:23:20.584Z,100511.00
2023-01-10T09:25:49.266Z,100533.47
2023-01-10T09:28:17.593Z,100535.88
2023-01-10T09:30:46.105Z,100537.28
2023-01-10T09:33:14.306Z,100544.63
2023-01-10T09:35:43.687Z,100547.84
2023-01-10T09:38:12.765Z,100549.66
2023-01-10T09:40:56.934Z,100552.88
2023-01-10T09:43:36.181Z,100562.25
2023-01-10T09:46:07.426Z,100559.47
2023-01-10T09:48:44.594Z,100569.50
2023-01-10T09:51:30.227Z,100558.53
2023-01-10T09:54:11.191Z,100561.84
2023-01-10T09:56:41.351Z,100555.41
2023-01-10T09:59:15.027Z,100568.25
2023-01-10T10:01:42.538Z,100568.34
2023-01-10T10:04:21.019Z,100576.00
2023-01-10T10:06:50.995Z,100568.41
2023-01-10T10:09:22.522Z,100569.53
2023-01-10T10:12:15.141Z,100557.53
2023-01-10T10:14:54.411Z,100570.44
2023-01-10T10:17:33.445Z,100571.78
2023-01-10T10:20:21.435Z,100582.63
2023-01-10T10:23:04.267Z,100571.47
2023-01-10T10:25:53.331Z,100563.38
2023-01-10T10:28:54.615Z,100569.84
2023-01-10T10:31:34.894Z,100561.78
2023-01-10T10:34:12.069Z,100562.44
2023-01-10T10:36:44.813Z,100563.25
2023-01-10T10:39:18.721Z,100562.59
2023-01-10T10:41:49.278Z,100570.03
2023-01-10T10:44:33.356Z,100575.53
2023-01-10T10:47:01.374Z,100572.16
2023-01-10T10:49:36.087Z,100564.16
2023-01-10T10:52:09.081Z,100564.31
2023-01-10T10:54:38.085Z,100571.06
2023-01-10T10:57:05.514Z,100570.56
2023-01-10T10:59:32.932Z,100577.09
2023-01-10T11:02:00.660Z,100582.34
2023-01-10T11:04:29.156Z,100586.81
2023-01-10T11:06:56.644Z,100585.69
2023-01-10T11:09:28.745Z,100595.31
2023-01-10T11:11:59.260Z,100591.72
2023-01-10T11:14:45.987Z,100592.50
2023-01-10T11:17:21.069Z,100586.16
2023-01-10T11:19:57.745Z,100598.97
2023-01-10T11:22:26.330Z,100603.50
2023-01-10T11:24:56.451Z,100596.56
2023-01-10T11:27:28.115Z,100602.41
2023-01-10T11:29:59.046Z,100604.47
2023-01-10T11:32:33.969Z,100606.59
2023-01-10T11:35:03.495Z,100617.22
2023-01-10T11:37:33.272Z,100618.00
2023-01-10T11:40:16.374Z,100607.88
2023-01-10T11:42:45.393Z,100604.78
2023-01-10T11:45:38.032Z,100603.22
2023-01-10T11:48:10.089Z,100599.19
2023-01-10T11:50:42.058Z,100597.78
2023-01-10T11:53:32.918Z,100589.50
2023-01-10T11:56:00.851Z,100598.53
2023-01-10T11:58:33.627Z,100609.25
2023-01-10T12:01:01.607Z,100602.06
2023-01-10T12:03:30.723Z,100613.03
2023-01-10T12:06:00.731Z,100619.94
2023-01-10T12:08:32.045Z,100613.75
2023-01-10T12:11:02.668Z,100615.19
2023-01-10T12:13:43.325Z,100613.75
2023-01-10T12:16:20.107Z,100619.94
2023-01-10T12:18:48.002Z,100627.78
2023-01-10T12:21:18.180Z,100622.44
2023-01-10T12:23:49.635Z,100632.53
2023-01-10T12:26:17.431Z,100636.25
2023-01-10T12:28:51.550Z,100638.06
2023-01-10T12:31:20.834Z,100632.53
2023-01-10T12:33:56.558Z,100643.69
2023-01-10T12:36:35.366Z,100643.50
2023-01-10T12:39:14.320Z,100641.94
2023-01-10T12:42:10.362Z,100638.31
2023-01-10T12:44:42.023Z,100639.69
2023-01-10T12:47:20.467Z,100648.03
2023-01-10T12:49:55.321Z,100643.41
2023-01-10T12:52:31.915Z,100647.91
2023-01-10T12:54:59.690Z,100652.09
2023-01-10T12:57:32.808Z,100656.44
2023-01-10T13:00:04.638Z,100654.88
2023-01-10T13:02:40.575Z,100660.56
2023-01-10T13:05:17.441Z,100664.03
2023-01-10T13:07:46.866Z,100660.13
2023-01-10T13:10:18.160Z,100663.28
2023-01-10T13:12:51.630Z,100664.34
2023-01-10T13:15:24.393Z,100671.44
2023-01-10T13:17:58.498Z,100661.34
2023-01-10T13:20:37.004Z,100665.91
2023-01-10T13:23:16.099Z,100673.16
2023-01-10T13:25:56.087Z,100684.34
2023-01-10T13:28:26.998Z,100680.72
2023-01-10T13:30:58.079Z,100677.38
2023-01-10T13:33:27.613Z,100669.09
2023-01-10T13:35:58.491Z,100678.16
2023-01-10T13:38:32.082Z,100688.66
2023-01-10T13:41:02.790Z,100685.41
2023-01-10T13:43:39.003Z,100690.41
2023-01-10T13:46:46.147Z,100695.28
2023-01-10T13:49:42.837Z,100701.41
2023-01-10T13:52:37.102Z,100709.69
2023-01-10T13:55:35.107Z,100717.66
2023-01-10T13:58:04.676Z,100720.81
2023-01-10T14:01:05.003Z,100720.38
2023-01-10T14:03:57.845Z,100728.78
2023-01-10T14:06:41.089Z,100722.69
2023-01-10T14:09:42.327Z,100722.25
2023-01-10T14:12:20.485Z,100716.75
2023-01-10T14:14:54.791Z,100726.50
2023-01-10T14:17:24.842Z,100723.38
2023-01-10T14:20:03.520Z,100715.03
2023-01-10T14:22:33.156Z,100722.44
2023-01-10T14:25:02.314Z,100733.72
2023-01-10T14:27:43.663Z,100731.06
2023-01-10T14:30:17.773Z,100728.56
2023-01-10T14:32:50.970Z,100724.41
2023-01-10T14:35:23.166Z,100729.72
2023-01-10T14:37:55.464Z,100724.38
2023-01-10T14:40:28.154Z,100718.56
2023-01-10T14:42:59.936Z,100716.28
2023-01-10T14:45:34.466Z,100710.16
2023-01-10T14:48:19.049Z,100710.41
2023-01-10T14:50:47.766Z,100720.22
2023-01-10T14:53:26.323Z,100715.19
2023-01-10T14:55:53.747Z,100720.22
2023-01-10T14:58:22.664Z,100719.13
2023-01-10T15:00:51.565Z,100719.94
2023-01-10T15:03:20.726Z,100720.72
2023-01-10T15:05:51.446Z,100720.97
2023-01-10T15:08:23.125Z,100723.88
2023-01-10T15:10:53.112Z,100718.34
2023-01-10T15:13:24.704Z,100728.41
2023-01-10T15:15:52.558Z,100738.63
2023-01-10T15:18:33.249Z,100741.47
2023-01-10T15:21:02.123Z,100747.25
2023-01-10T15:23:35.693Z,100755.66
2023-01-10T15:26:05.892Z,100757.88
2023-01-10T15:28:35.794Z,100753.06
2023-01-10T15:31:05.598Z,100753.06
2023-01-10T15:33:35.688Z,100769.50
2023-01-10T15:36:14.911Z,100755.41
2023-01-10T15:38:45.620Z,100754.72
2023-01-10T15:41:19.832Z,100759.97
2023-01-10T15:43:49.939Z,100762.50
2023-01-10T15:46:22.034Z,100760.63
2023-01-10T15:48:58.860Z,100764.22
2023-01-10T15:51:30.132Z,100765.06
2023-01-10T15:54:03.486Z,100769.72
2023-01-10T15:56:35.758Z,100769.97
2023-01-10T15:59:03.919Z,100773.31
2023-01-10T16:01:32.778Z,100772.47
2023-01-10T16:04:02.591Z,100766.72
2023-01-10T16:06:34.594Z,100772.84
2023-01-10T16:09:09.103Z,100773.94
2023-01-10T16:11:59.504Z,100772.19
2023-01-10T16:14:27.069Z,100774.97
2023-01-10T16:16:54.443Z,100769.53
2023-01-10T16:19:21.820Z,100760.91
2023-01-10T16:21:57.566Z,100762.47
2023-01-10T16:24:27.751Z,100768.84
2023-01-10T16:26:56.484Z,100764.81
2023-01-10T16:29:24.651Z,100765.66
2023-01-10T16:31:53.292Z,100761.13
2023-01-10T16:34:21.102Z,100755.09
2023-01-10T16:36:49.804Z,100756.97
2023-01-10T16:39:19.530Z,100751.63
2023-01-10T16:42:04.905Z,100752.31
2023-01-10T16:44:33.554Z,100755.97
2023-01-10T16:47:07.058Z,100754.19
2023-01-10T16:49:34.811Z,100747.09
2023-01-10T16:52:03.626Z,100749.28
2023-01-10T16:54:31.180Z,100754.19
2023-01-10T16:56:58.519Z,100740.00
2023-01-10T16:59:25.914Z,100747.56
2023-01-10T17:01:56.398Z,100749.56
2023-01-10T17:04:27.155Z,100742.91
2023-01-10T17:06:56.545Z,100744.13
2023-01-10T17:09:27.729Z,100743.09
2023-01-10T17:12:01.791Z,100743.16
2023-01-10T17:14:29.807Z,100739.97
2023-01-10T17:16:57.196Z,100739.13
2023-01-10T17:19:25.254Z,100744.44
2023-01-10T17:21:53.159Z,100742.13
2023-01-10T17:24:20.856Z,100746.22
2023-01-10T17:26:49.535Z,100750.25
2023-01-10T17:29:16.946Z,100757.06
2023-01-10T17:31:44.339Z,100757.78
2023-01-10T17:34:11.826Z,100761.72
2023-01-10T17:36:39.871Z,100754.19
2023-01-10T17:39:07.919Z,100764.25
2023-01-10T17:41:35.260Z,100761.53
2023-01-10T17:44:04.047Z,100758.50
2023-01-10T17:46:31.446Z,100751.56
2023-01-10T17:48:59.126Z,100752.78
2023-01-10T17:51:28.814Z,100748.91
2023-01-10T17:53:56.849Z,100744.59
2023-01-10T17:56:24.491Z,100734.34
2023-01-10T17:58:52.987Z,100740.25
2023-01-10T18:01:25.369Z,100747.91
2023-01-10T18:03:53.302Z,100746.63
2023-01-10T18:06:25.569Z,100743.81
2023-01-10T18:08:53.427Z,100736.19
2023-01-10T18:11:20.970Z,100746.09
2023-01-10T18:13:48.393Z,100746.16
2023-01-10T18:16:15.785Z,100756.97
2023-01-10T18:18:44.484Z,100759.13
2023-01-10T18:21:13.959Z,100763.41
2023-01-10T18:23:41.463Z,100772.94
2023-01-10T18:26:11.168Z,100771.06
2023-01-10T18:28:42.146Z,100774.28
2023-01-10T18:31:12.672Z,100772.22
2023-01-10T18:33:40.760Z,100765.97
2023-01-10T18:36:14.159Z,100766.09
2023-01-10T18:38:41.563Z,100772.13
2023-01-10T18:41:08.962Z,100767.28
2023-01-10T18:43:36.343Z,100767.91
2023-01-10T18:46:05.865Z,100764.16
2023-01-10T18:48:33.619Z,100764.19
2023-01-10T18:51:02.562Z,100759.34
2023-01-10T18:53:31.565Z,100750.63
2023-01-10T18:56:00.518Z,100761.47
2023-01-10T18:58:29.486Z,100757.09
2023-01-10T19:00:56.951Z,100758.63
2023-01-10T19:03:24.564Z,100760.94
2023-01-10T19:05:51.960Z,100768.22
2023-01-10T19:08:19.345Z,100761.41
2023-01-10T19:11:11.805Z,100757.63
2023-01-10T19:13:36.533Z,100750.28
2023-01-10T19:16:12.016Z,100746.09
2023-01-10T19:18:39.575Z,100751.09
2023-01-10T19:21:08.764Z,100747.28
2023-01-10T19:23:36.198Z,100743.69
2023-01-10T19:26:05.033Z,100748.41
2023-01-10T19:28:32.393Z,100741.63
2023-01-10T19:31:04.584Z,100738.50
2023-01-10T19:33:34.213Z,100742.47
2023-01-10T19:36:05.684Z,100744.00
2023-01-10T19:38:33.094Z,100743.50
2023-01-10T19:41:00.478Z,100739.50
2023-01-10T19:43:29.930Z,100742.25
2023-01-10T19:45:57.371Z,100740.69
2023-01-10T19:48:25.158Z,100743.25
2023-01-10T19:50:52.669Z,100740.88
2023-01-10T19:53:23.807Z,100734.28
2023-01-10T19:56:00.313Z,100735.44
2023-01-10T19:58:29.092Z,100732.09
2023-01-10T20:00:56.540Z,100725.16
2023-01-10T20:03:24.213Z,100728.59
2023-01-10T20:05:51.836Z,100733.03
2023-01-10T20:08:19.370Z,100727.75
2023-01-10T20:10:46.989Z,100721.75
2023-01-10T20:13:14.391Z,100728.28
2023-01-10T20:15:43.918Z,100729.13
2023-01-10T20:18:11.389Z,100724.00
2023-01-10T20:20:41.388Z,100727.03
2023-01-10T20:23:11.354Z,100725.91
2023-01-10T20:25:38.746Z,100708.94
2023-01-10T20:28:06.399Z,100714.16
2023-01-10T20:30:33.762Z,100706.72
2023-01-10T20:33:02.458Z,100717.59
2023-01-10T20:35:29.855Z,100706.06
2023-01-10T20:37:57.247Z,100714.63
2023-01-10T20:40:25.989Z,100715.34
2023-01-10T20:42:53.357Z,100706.97
2023-01-10T20:45:20.759Z,100714.72
2023-01-10T20:47:50.625Z,100706.63
2023-01-10T20:50:20.570Z,100709.41
2023-01-10T20:52:47.983Z,100710.03
2023-01-10T20:55:19.675Z,100707.50
2023-01-10T20:57:47.109Z,100701.13
2023-01-10T21:00:17.346Z,100710.63
2023-01-10T21:02:45.103Z,100706.66
2023-01-10T21:05:12.530Z,100706.38
2023-01-10T21:07:41.216Z,100703.00
2023-01-10T21:10:09.904Z,100701.06
2023-01-10T21:12:37.283Z,100705.88
2023-01-10T21:15:05.355Z,100702.59
2023-01-10T21:17:32.727Z,100694.72
2023-01-10T21:20:00.145Z,100693.19
2023-01-10T21:22:31.320Z,100689.91
2023-01-10T21:25:00.115Z,100691.50
2023-01-10T21:27:30.735Z,100690.16
2023-01-10T21:29:58.524Z,100687.22
2023-01-10T21:32:26.156Z,100685.38
2023-01-10T21:34:53.513Z,100686.56
2023-01-10T21:37:20.928Z,100686.22
2023-01-10T21:39:48.345Z,100693.66
2023-01-10T21:42:35.165Z,100690.63
2023-01-10T21:45:03.585Z,100686.00
2023-01-10T21:47:31.040Z,100687.84
2023-01-10T21:49:58.420Z,100694.31
2023-01-10T21:52:25.796Z,100687.91
2023-01-10T21:54:53.234Z,100692.22
2023-01-10T21:57:23.405Z,100693.16
2023-01-10T21:59:51.297Z,100699.06
2023-01-10T22:02:21.079Z,100689.69
2023-01-10T22:04:50.608Z,100697.38
2023-01-10T22:07:18.796Z,100701.28
2023-01-10T22:09:46.350Z,100683.72
2023-01-10T22:12:13.728Z,100689.41
2023-01-10T22:14:42.419Z,100680.97
2023-01-10T22:17:09.808Z,100678.75
2023-01-10T22:19:37.173Z,100674.63
2023-01-10T22:22:04.962Z,100668.66
2023-01-10T22:24:32.599Z,100669.47
2023-01-10T22:27:00.295Z,100652.78
2023-01-10T22:29:28.330Z,100659.59
2023-01-10T22:31:56.951Z,100652.56
2023-01-10T22:34:24.428Z,100657.38
2023-01-10T22:36:51.858Z,100648.97
2023-01-10T22:39:19.270Z,100642.63
2023-01-10T22:41:46.630Z,100642.59
2023-01-10T22:44:18.974Z,100633.78
2023-01-10T22:46:46.472Z,100630.66
2023-01-10T22:49:15.611Z,100622.69
2023-01-10T22:51:43.073Z,100619.22
2023-01-10T22:54:13.101Z,100612.03
2023-01-10T22:56:40.476Z,100602.41
2023-01-10T22:59:07.829Z,100609.47
2023-01-10T23:01:35.299Z,100607.72
2023-01-10T23:04:02.979Z,100598.16
2023-01-10T23:06:31.893Z,100594.69
2023-01-10T23:08:59.870Z,100597.06
2023-01-10T23:11:27.418Z,100595.09
2023-01-10T23:13:54.822Z,100600.09
2023-01-10T23:16:28.396Z,100585.72
2023-01-10T23:18:57.303Z,100593.94
2023-01-10T23:21:25.298Z,100587.47
2023-01-10T23:23:53.860Z,100582.69
2023-01-10T23:26:21.232Z,100580.84
2023-01-10T23:28:50.596Z,100579.81
2023-01-10T23:31:20.417Z,100580.59
2023-01-10T23:33:48.873Z,100577.03
2023-01-10T23:36:17.039Z,100577.94
2023-01-10T23:38:44.481Z,100576.22
2023-01-10T23:41:13.274Z,100568.28
2023-01-10T23:43:40.696Z,100561.25
2023-01-10T23:46:08.323Z,100568.06
2023-01-10T23:48:35.938Z,100554.44
2023-01-10T23:51:03.408Z,100550.94
2023-01-10T23:53:30.740Z,100555.63
2023-01-10T23:55:58.260Z,100560.47
2023-01-10T23:58:26.928Z,100549.84
